sensor_id;sensor_type;location;lat;lon;timestamp;P1;durP1;ratioP1;P2;durP2;ratioP2
46875;SDS011;32866;50.160;14.768;2023-01-16T00:00:12;3.47;;;1.42;;
46875;SDS011;32866;50.160;14.768;2023-01-16T00:02:38;3.25;;;1.65;;
46875;SDS011;32866;50.160;14.768;2023-01-16T00:05:03;1.73;;;1.63;;
46875;SDS011;32866;50.160;14.768;2023-01-16T00:07:29;3.05;;;1.40;;
46875;SDS011;32866;50.160;14.768;2023-01-16T00:09:54;3.95;;;1.10;;
46875;SDS011;32866;50.160;14.768;2023-01-16T00:12:20;3.47;;;1.60;;
46875;SDS011;32866;50.160;14.768;2023-01-16T00:14:45;3.50;;;1.25;;
46875;SDS011;32866;50.160;14.768;2023-01-16T00:17:10;2.47;;;1.25;;
46875;SDS011;32866;50.160;14.768;2023-01-16T00:19:36;1.45;;;1.20;;
46875;SDS011;32866;50.160;14.768;2023-01-16T00:22:02;2.35;;;1.60;;
46875;SDS011;32866;50.160;14.768;2023-01-16T00:26:52;1.83;;;1.30;;
46875;SDS011;32866;50.160;14.768;2023-01-16T00:29:18;2.33;;;1.52;;
46875;SDS011;32866;50.160;14.768;2023-01-16T00:31:43;4.15;;;1.52;;
46875;SDS011;32866;50.160;14.768;2023-01-16T00:34:08;3.10;;;2.00;;
46875;SDS011;32866;50.160;14.768;2023-01-16T00:36:34;3.47;;;2.42;;
46875;SDS011;32866;50.160;14.768;2023-01-16T00:38:59;2.72;;;2.05;;
46875;SDS011;32866;50.160;14.768;2023-01-16T00:41:25;2.58;;;1.77;;
46875;SDS011;32866;50.160;14.768;2023-01-16T00:43:50;2.60;;;1.42;;
46875;SDS011;32866;50.160;14.768;2023-01-16T00:46:16;4.13;;;1.40;;
46875;SDS011;32866;50.160;14.768;2023-01-16T00:48:42;2.35;;;1.60;;
46875;SDS011;32866;50.160;14.768;2023-01-16T00:51:22;2.80;;;1.67;;
46875;SDS011;32866;50.160;14.768;2023-01-16T00:53:48;4.37;;;2.20;;
46875;SDS011;32866;50.160;14.768;2023-01-16T00:56:13;4.57;;;1.90;;
46875;SDS011;32866;50.160;14.768;2023-01-16T00:58:38;2.50;;;1.42;;
46875;SDS011;32866;50.160;14.768;2023-01-16T01:01:04;6.47;;;1.55;;
46875;SDS011;32866;50.160;14.768;2023-01-16T01:03:29;2.50;;;1.30;;
46875;SDS011;32866;50.160;14.768;2023-01-16T01:05:55;4.75;;;1.27;;
46875;SDS011;32866;50.160;14.768;2023-01-16T01:08:21;3.35;;;1.40;;
46875;SDS011;32866;50.160;14.768;2023-01-16T01:10:46;2.10;;;1.20;;
46875;SDS011;32866;50.160;14.768;2023-01-16T01:13:12;4.32;;;1.27;;
46875;SDS011;32866;50.160;14.768;2023-01-16T01:15:37;4.00;;;2.65;;
46875;SDS011;32866;50.160;14.768;2023-01-16T01:18:02;3.05;;;1.60;;
46875;SDS011;32866;50.160;14.768;2023-01-16T01:22:54;2.30;;;1.57;;
46875;SDS011;32866;50.160;14.768;2023-01-16T01:25:19;3.72;;;1.58;;
46875;SDS011;32866;50.160;14.768;2023-01-16T01:27:45;1.20;;;1.10;;
46875;SDS011;32866;50.160;14.768;2023-01-16T01:30:10;2.85;;;1.48;;
46875;SDS011;32866;50.160;14.768;2023-01-16T01:32:36;1.25;;;1.15;;
46875;SDS011;32866;50.160;14.768;2023-01-16T01:35:05;1.73;;;1.17;;
46875;SDS011;32866;50.160;14.768;2023-01-16T01:37:32;2.60;;;1.40;;
46875;SDS011;32866;50.160;14.768;2023-01-16T01:39:57;2.00;;;1.20;;
46875;SDS011;32866;50.160;14.768;2023-01-16T01:42:23;2.33;;;1.42;;
46875;SDS011;32866;50.160;14.768;2023-01-16T01:45:17;2.07;;;1.13;;
46875;SDS011;32866;50.160;14.768;2023-01-16T01:50:47;2.30;;;1.30;;
46875;SDS011;32866;50.160;14.768;2023-01-16T01:53:24;2.00;;;1.10;;
46875;SDS011;32866;50.160;14.768;2023-01-16T01:55:55;2.57;;;1.30;;
46875;SDS011;32866;50.160;14.768;2023-01-16T01:58:24;2.80;;;1.10;;
46875;SDS011;32866;50.160;14.768;2023-01-16T02:00:53;2.93;;;1.20;;
46875;SDS011;32866;50.160;14.768;2023-01-16T02:03:28;2.17;;;1.57;;
46875;SDS011;32866;50.160;14.768;2023-01-16T02:06:03;2.93;;;2.50;;
46875;SDS011;32866;50.160;14.768;2023-01-16T02:08:32;4.43;;;1.90;;
46875;SDS011;32866;50.160;14.768;2023-01-16T02:11:03;1.93;;;1.67;;
46875;SDS011;32866;50.160;14.768;2023-01-16T02:13:33;4.97;;;1.80;;
46875;SDS011;32866;50.160;14.768;2023-01-16T02:16:02;1.43;;;1.33;;
46875;SDS011;32866;50.160;14.768;2023-01-16T02:18:47;1.20;;;1.10;;
46875;SDS011;32866;50.160;14.768;2023-01-16T02:24:38;1.97;;;1.67;;
46875;SDS011;32866;50.160;14.768;2023-01-16T02:43:55;1.10;;;1.00;;
46875;SDS011;32866;50.160;14.768;2023-01-16T02:46:29;1.33;;;1.00;;
46875;SDS011;32866;50.160;14.768;2023-01-16T02:49:02;2.40;;;0.93;;
46875;SDS011;32866;50.160;14.768;2023-01-16T02:52:04;2.23;;;1.20;;
46875;SDS011;32866;50.160;14.768;2023-01-16T02:54:51;1.92;;;1.10;;
46875;SDS011;32866;50.160;14.768;2023-01-16T02:57:33;1.33;;;1.00;;
46875;SDS011;32866;50.160;14.768;2023-01-16T03:00:04;1.27;;;1.13;;
46875;SDS011;32866;50.160;14.768;2023-01-16T03:02:31;4.80;;;1.00;;
46875;SDS011;32866;50.160;14.768;2023-01-16T03:04:56;2.58;;;1.38;;
46875;SDS011;32866;50.160;14.768;2023-01-16T03:10:16;2.20;;;1.33;;
46875;SDS011;32866;50.160;14.768;2023-01-16T03:20:51;2.47;;;1.30;;
46875;SDS011;32866;50.160;14.768;2023-01-16T03:26:04;1.88;;;1.20;;
46875;SDS011;32866;50.160;14.768;2023-01-16T03:31:59;3.67;;;1.23;;
46875;SDS011;32866;50.160;14.768;2023-01-16T03:34:30;2.43;;;1.30;;
46875;SDS011;32866;50.160;14.768;2023-01-16T03:39:52;1.30;;;1.20;;
46875;SDS011;32866;50.160;14.768;2023-01-16T03:42:41;2.17;;;1.40;;
46875;SDS011;32866;50.160;14.768;2023-01-16T03:45:19;2.83;;;1.90;;
46875;SDS011;32866;50.160;14.768;2023-01-16T03:48:01;3.47;;;1.43;;
46875;SDS011;32866;50.160;14.768;2023-01-16T03:50:31;2.03;;;1.77;;
46875;SDS011;32866;50.160;14.768;2023-01-16T03:53:02;2.47;;;1.20;;
46875;SDS011;32866;50.160;14.768;2023-01-16T03:55:38;1.03;;;1.00;;
46875;SDS011;32866;50.160;14.768;2023-01-16T03:58:11;1.55;;;1.10;;
46875;SDS011;32866;50.160;14.768;2023-01-16T04:03:54;1.47;;;1.10;;
46875;SDS011;32866;50.160;14.768;2023-01-16T04:08:59;2.40;;;1.37;;
46875;SDS011;32866;50.160;14.768;2023-01-16T04:11:29;2.33;;;1.10;;
46875;SDS011;32866;50.160;14.768;2023-01-16T04:13:57;2.10;;;1.30;;
46875;SDS011;32866;50.160;14.768;2023-01-16T04:16:25;1.10;;;1.00;;
46875;SDS011;32866;50.160;14.768;2023-01-16T04:18:54;1.73;;;1.23;;
46875;SDS011;32866;50.160;14.768;2023-01-16T04:21:24;1.23;;;0.97;;
46875;SDS011;32866;50.160;14.768;2023-01-16T04:23:51;3.17;;;1.30;;
46875;SDS011;32866;50.160;14.768;2023-01-16T04:26:18;3.23;;;1.20;;
46875;SDS011;32866;50.160;14.768;2023-01-16T04:28:43;2.75;;;1.50;;
46875;SDS011;32866;50.160;14.768;2023-01-16T04:31:09;5.00;;;1.33;;
46875;SDS011;32866;50.160;14.768;2023-01-16T04:33:34;3.35;;;1.40;;
46875;SDS011;32866;50.160;14.768;2023-01-16T04:36:00;1.80;;;1.08;;
46875;SDS011;32866;50.160;14.768;2023-01-16T04:38:25;1.67;;;1.20;;
46875;SDS011;32866;50.160;14.768;2023-01-16T04:40:52;2.40;;;2.08;;
46875;SDS011;32866;50.160;14.768;2023-01-16T04:43:18;2.00;;;1.00;;
46875;SDS011;32866;50.160;14.768;2023-01-16T04:45:44;1.48;;;1.00;;
46875;SDS011;32866;50.160;14.768;2023-01-16T04:48:11;1.20;;;1.07;;
46875;SDS011;32866;50.160;14.768;2023-01-16T04:50:37;2.50;;;1.27;;
46875;SDS011;32866;50.160;14.768;2023-01-16T04:53:02;3.83;;;1.23;;
46875;SDS011;32866;50.160;14.768;2023-01-16T04:55:28;2.33;;;1.35;;
46875;SDS011;32866;50.160;14.768;2023-01-16T04:57:54;1.92;;;1.10;;
46875;SDS011;32866;50.160;14.768;2023-01-16T05:00:19;5.25;;;1.48;;
46875;SDS011;32866;50.160;14.768;2023-01-16T05:02:45;2.60;;;1.55;;
46875;SDS011;32866;50.160;14.768;2023-01-16T05:05:10;2.90;;;1.25;;
46875;SDS011;32866;50.160;14.768;2023-01-16T05:07:35;1.23;;;0.90;;
46875;SDS011;32866;50.160;14.768;2023-01-16T05:10:01;2.33;;;1.13;;
46875;SDS011;32866;50.160;14.768;2023-01-16T05:12:26;3.75;;;1.15;;
46875;SDS011;32866;50.160;14.768;2023-01-16T05:14:52;1.08;;;1.00;;
46875;SDS011;32866;50.160;14.768;2023-01-16T05:17:17;1.45;;;1.10;;
46875;SDS011;32866;50.160;14.768;2023-01-16T05:19:47;4.10;;;1.17;;
46875;SDS011;32866;50.160;14.768;2023-01-16T05:22:13;4.40;;;1.23;;
46875;SDS011;32866;50.160;14.768;2023-01-16T05:24:38;1.17;;;0.80;;
46875;SDS011;32866;50.160;14.768;2023-01-16T05:27:03;1.33;;;1.10;;
46875;SDS011;32866;50.160;14.768;2023-01-16T05:29:29;1.27;;;1.17;;
46875;SDS011;32866;50.160;14.768;2023-01-16T05:31:54;1.63;;;0.88;;
46875;SDS011;32866;50.160;14.768;2023-01-16T05:34:20;1.58;;;1.30;;
46875;SDS011;32866;50.160;14.768;2023-01-16T05:36:45;1.48;;;1.00;;
46875;SDS011;32866;50.160;14.768;2023-01-16T05:39:11;5.00;;;1.33;;
46875;SDS011;32866;50.160;14.768;2023-01-16T05:41:36;1.58;;;1.20;;
46875;SDS011;32866;50.160;14.768;2023-01-16T05:44:01;1.48;;;1.10;;
46875;SDS011;32866;50.160;14.768;2023-01-16T05:46:27;1.33;;;1.20;;
46875;SDS011;32866;50.160;14.768;2023-01-16T05:48:52;1.45;;;1.23;;
46875;SDS011;32866;50.160;14.768;2023-01-16T05:51:18;2.67;;;1.05;;
46875;SDS011;32866;50.160;14.768;2023-01-16T05:53:43;1.67;;;1.23;;
46875;SDS011;32866;50.160;14.768;2023-01-16T05:56:09;2.63;;;1.38;;
46875;SDS011;32866;50.160;14.768;2023-01-16T05:58:36;1.47;;;1.10;;
46875;SDS011;32866;50.160;14.768;2023-01-16T06:03:27;2.30;;;1.67;;
46875;SDS011;32866;50.160;14.768;2023-01-16T06:05:52;4.45;;;1.83;;
46875;SDS011;32866;50.160;14.768;2023-01-16T06:08:18;2.90;;;1.08;;
46875;SDS011;32866;50.160;14.768;2023-01-16T06:10:43;2.33;;;1.50;;
46875;SDS011;32866;50.160;14.768;2023-01-16T06:13:13;1.23;;;1.10;;
46875;SDS011;32866;50.160;14.768;2023-01-16T06:15:38;2.00;;;1.27;;
46875;SDS011;32866;50.160;14.768;2023-01-16T06:20:39;2.93;;;1.47;;
46875;SDS011;32866;50.160;14.768;2023-01-16T06:23:05;2.80;;;1.35;;
46875;SDS011;32866;50.160;14.768;2023-01-16T06:25:30;1.50;;;1.17;;
46875;SDS011;32866;50.160;14.768;2023-01-16T06:27:55;6.13;;;2.00;;
46875;SDS011;32866;50.160;14.768;2023-01-16T06:30:21;2.72;;;1.45;;
46875;SDS011;32866;50.160;14.768;2023-01-16T06:32:49;5.50;;;1.40;;
46875;SDS011;32866;50.160;14.768;2023-01-16T06:35:15;1.73;;;1.43;;
46875;SDS011;32866;50.160;14.768;2023-01-16T06:37:41;2.90;;;1.60;;
46875;SDS011;32866;50.160;14.768;2023-01-16T06:40:07;8.40;;;2.45;;
46875;SDS011;32866;50.160;14.768;2023-01-16T06:44:58;7.67;;;2.87;;
46875;SDS011;32866;50.160;14.768;2023-01-16T06:47:23;5.90;;;3.50;;
46875;SDS011;32866;50.160;14.768;2023-01-16T06:49:49;8.35;;;3.47;;
46875;SDS011;32866;50.160;14.768;2023-01-16T06:52:14;6.20;;;3.83;;
46875;SDS011;32866;50.160;14.768;2023-01-16T06:54:39;4.35;;;2.38;;
46875;SDS011;32866;50.160;14.768;2023-01-16T06:57:05;4.25;;;2.38;;
46875;SDS011;32866;50.160;14.768;2023-01-16T06:59:30;6.22;;;2.65;;
46875;SDS011;32866;50.160;14.768;2023-01-16T07:01:55;2.33;;;1.75;;
46875;SDS011;32866;50.160;14.768;2023-01-16T07:04:21;5.78;;;1.63;;
46875;SDS011;32866;50.160;14.768;2023-01-16T07:06:46;3.20;;;1.50;;
46875;SDS011;32866;50.160;14.768;2023-01-16T07:09:14;2.27;;;1.37;;
46875;SDS011;32866;50.160;14.768;2023-01-16T07:11:39;4.40;;;1.70;;
46875;SDS011;32866;50.160;14.768;2023-01-16T07:14:05;4.18;;;1.50;;
46875;SDS011;32866;50.160;14.768;2023-01-16T07:16:48;2.13;;;1.70;;
46875;SDS011;32866;50.160;14.768;2023-01-16T07:19:32;3.67;;;1.80;;
46875;SDS011;32866;50.160;14.768;2023-01-16T07:22:16;5.27;;;2.13;;
46875;SDS011;32866;50.160;14.768;2023-01-16T07:25:05;2.13;;;1.17;;
46875;SDS011;32866;50.160;14.768;2023-01-16T07:27:34;2.20;;;1.73;;
46875;SDS011;32866;50.160;14.768;2023-01-16T07:30:00;3.15;;;1.75;;
46875;SDS011;32866;50.160;14.768;2023-01-16T07:32:25;2.20;;;1.38;;
46875;SDS011;32866;50.160;14.768;2023-01-16T07:34:51;3.28;;;2.13;;
46875;SDS011;32866;50.160;14.768;2023-01-16T07:37:16;3.00;;;1.55;;
46875;SDS011;32866;50.160;14.768;2023-01-16T07:39:42;2.40;;;1.70;;
46875;SDS011;32866;50.160;14.768;2023-01-16T07:42:22;4.47;;;2.03;;
46875;SDS011;32866;50.160;14.768;2023-01-16T07:44:48;2.40;;;1.50;;
46875;SDS011;32866;50.160;14.768;2023-01-16T07:47:13;2.88;;;1.70;;
46875;SDS011;32866;50.160;14.768;2023-01-16T07:49:39;2.83;;;1.95;;
46875;SDS011;32866;50.160;14.768;2023-01-16T07:52:04;2.55;;;1.70;;
46875;SDS011;32866;50.160;14.768;2023-01-16T07:54:29;2.90;;;1.23;;
46875;SDS011;32866;50.160;14.768;2023-01-16T07:56:55;3.20;;;1.70;;
46875;SDS011;32866;50.160;14.768;2023-01-16T07:59:20;3.58;;;1.60;;
46875;SDS011;32866;50.160;14.768;2023-01-16T08:01:46;4.45;;;1.85;;
46875;SDS011;32866;50.160;14.768;2023-01-16T08:04:12;2.55;;;1.98;;
46875;SDS011;32866;50.160;14.768;2023-01-16T08:06:37;2.55;;;1.40;;
46875;SDS011;32866;50.160;14.768;2023-01-16T08:09:09;4.33;;;2.20;;
46875;SDS011;32866;50.160;14.768;2023-01-16T08:14:00;4.73;;;2.67;;
46875;SDS011;32866;50.160;14.768;2023-01-16T08:16:26;3.03;;;2.33;;
46875;SDS011;32866;50.160;14.768;2023-01-16T08:18:51;2.72;;;1.45;;
46875;SDS011;32866;50.160;14.768;2023-01-16T08:21:17;3.83;;;1.50;;
46875;SDS011;32866;50.160;14.768;2023-01-16T08:23:43;3.58;;;1.92;;
46875;SDS011;32866;50.160;14.768;2023-01-16T08:26:09;2.83;;;1.55;;
46875;SDS011;32866;50.160;14.768;2023-01-16T08:28:36;2.63;;;2.13;;
46875;SDS011;32866;50.160;14.768;2023-01-16T08:31:05;7.55;;;2.22;;
46875;SDS011;32866;50.160;14.768;2023-01-16T08:33:37;4.53;;;1.73;;
46875;SDS011;32866;50.160;14.768;2023-01-16T08:36:04;4.80;;;2.00;;
46875;SDS011;32866;50.160;14.768;2023-01-16T08:38:30;6.33;;;2.40;;
46875;SDS011;32866;50.160;14.768;2023-01-16T08:40:56;6.40;;;1.75;;
46875;SDS011;32866;50.160;14.768;2023-01-16T08:43:22;3.95;;;2.08;;
46875;SDS011;32866;50.160;14.768;2023-01-16T08:46:10;8.13;;;1.80;;
46875;SDS011;32866;50.160;14.768;2023-01-16T08:48:57;2.47;;;1.80;;
46875;SDS011;32866;50.160;14.768;2023-01-16T08:51:42;3.20;;;1.40;;
46875;SDS011;32866;50.160;14.768;2023-01-16T08:54:08;2.75;;;1.85;;
46875;SDS011;32866;50.160;14.768;2023-01-16T08:56:33;2.67;;;1.58;;
46875;SDS011;32866;50.160;14.768;2023-01-16T08:58:59;3.20;;;1.83;;
46875;SDS011;32866;50.160;14.768;2023-01-16T09:01:24;4.35;;;1.92;;
46875;SDS011;32866;50.160;14.768;2023-01-16T09:06:25;7.57;;;2.00;;
46875;SDS011;32866;50.160;14.768;2023-01-16T09:08:50;4.82;;;2.50;;
46875;SDS011;32866;50.160;14.768;2023-01-16T09:11:16;5.07;;;2.70;;
46875;SDS011;32866;50.160;14.768;2023-01-16T09:14:00;8.67;;;2.80;;
46875;SDS011;32866;50.160;14.768;2023-01-16T09:16:26;5.03;;;1.77;;
46875;SDS011;32866;50.160;14.768;2023-01-16T09:18:52;3.17;;;1.52;;
46875;SDS011;32866;50.160;14.768;2023-01-16T09:21:17;1.52;;;1.27;;
46875;SDS011;32866;50.160;14.768;2023-01-16T09:23:44;1.53;;;1.27;;
46875;SDS011;32866;50.160;14.768;2023-01-16T09:26:10;2.13;;;1.57;;
46875;SDS011;32866;50.160;14.768;2023-01-16T09:28:36;4.95;;;1.73;;
46875;SDS011;32866;50.160;14.768;2023-01-16T09:31:01;3.97;;;1.92;;
46875;SDS011;32866;50.160;14.768;2023-01-16T09:33:27;4.70;;;1.88;;
46875;SDS011;32866;50.160;14.768;2023-01-16T09:35:52;3.22;;;1.75;;
46875;SDS011;32866;50.160;14.768;2023-01-16T09:38:18;3.55;;;1.70;;
46875;SDS011;32866;50.160;14.768;2023-01-16T09:40:46;2.65;;;1.85;;
46875;SDS011;32866;50.160;14.768;2023-01-16T09:43:18;3.87;;;1.80;;
46875;SDS011;32866;50.160;14.768;2023-01-16T09:46:17;2.63;;;1.50;;
46875;SDS011;32866;50.160;14.768;2023-01-16T09:48:49;4.23;;;2.03;;
46875;SDS011;32866;50.160;14.768;2023-01-16T09:51:21;5.20;;;1.80;;
46875;SDS011;32866;50.160;14.768;2023-01-16T09:53:54;3.73;;;2.03;;
46875;SDS011;32866;50.160;14.768;2023-01-16T09:56:43;2.27;;;1.37;;
46875;SDS011;32866;50.160;14.768;2023-01-16T09:59:33;5.57;;;2.10;;
46875;SDS011;32866;50.160;14.768;2023-01-16T10:04:42;4.07;;;1.80;;
46875;SDS011;32866;50.160;14.768;2023-01-16T10:12:11;3.50;;;1.70;;
46875;SDS011;32866;50.160;14.768;2023-01-16T10:17:25;2.73;;;1.80;;
46875;SDS011;32866;50.160;14.768;2023-01-16T10:25:31;2.63;;;1.43;;
46875;SDS011;32866;50.160;14.768;2023-01-16T10:31:21;3.23;;;1.10;;
46875;SDS011;32866;50.160;14.768;2023-01-16T10:33:56;2.90;;;0.90;;
46875;SDS011;32866;50.160;14.768;2023-01-16T10:36:25;9.67;;;1.60;;
46875;SDS011;32866;50.160;14.768;2023-01-16T10:38:58;2.70;;;1.33;;
46875;SDS011;32866;50.160;14.768;2023-01-16T10:47:18;2.53;;;1.63;;
46875;SDS011;32866;50.160;14.768;2023-01-16T10:50:06;4.87;;;1.60;;
46875;SDS011;32866;50.160;14.768;2023-01-16T10:52:32;4.27;;;2.57;;
46875;SDS011;32866;50.160;14.768;2023-01-16T10:54:58;1.88;;;1.15;;
46875;SDS011;32866;50.160;14.768;2023-01-16T10:57:24;3.47;;;1.07;;
46875;SDS011;32866;50.160;14.768;2023-01-16T10:59:51;1.83;;;1.20;;
46875;SDS011;32866;50.160;14.768;2023-01-16T11:02:32;3.77;;;1.30;;
46875;SDS011;32866;50.160;14.768;2023-01-16T11:05:21;3.50;;;1.33;;
46875;SDS011;32866;50.160;14.768;2023-01-16T11:07:48;3.43;;;1.93;;
46875;SDS011;32866;50.160;14.768;2023-01-16T11:10:14;4.80;;;1.42;;
46875;SDS011;32866;50.160;14.768;2023-01-16T11:12:40;6.27;;;1.70;;
46875;SDS011;32866;50.160;14.768;2023-01-16T11:15:24;2.43;;;1.10;;
46875;SDS011;32866;50.160;14.768;2023-01-16T11:18:21;1.70;;;1.00;;
46875;SDS011;32866;50.160;14.768;2023-01-16T11:20:55;1.60;;;1.05;;
46875;SDS011;32866;50.160;14.768;2023-01-16T11:23:27;3.38;;;1.33;;
46875;SDS011;32866;50.160;14.768;2023-01-16T11:26:01;2.50;;;0.98;;
46875;SDS011;32866;50.160;14.768;2023-01-16T11:28:28;3.17;;;1.33;;
46875;SDS011;32866;50.160;14.768;2023-01-16T11:31:18;2.90;;;1.10;;
46875;SDS011;32866;50.160;14.768;2023-01-16T11:33:47;1.08;;;0.90;;
46875;SDS011;32866;50.160;14.768;2023-01-16T11:36:19;2.50;;;0.93;;
46875;SDS011;32866;50.160;14.768;2023-01-16T11:38:46;1.30;;;0.95;;
46875;SDS011;32866;50.160;14.768;2023-01-16T11:41:13;1.80;;;0.98;;
46875;SDS011;32866;50.160;14.768;2023-01-16T11:43:43;2.15;;;1.10;;
46875;SDS011;32866;50.160;14.768;2023-01-16T11:48:53;5.15;;;1.42;;
46875;SDS011;32866;50.160;14.768;2023-01-16T11:51:20;1.88;;;0.77;;
46875;SDS011;32866;50.160;14.768;2023-01-16T11:53:54;1.98;;;0.88;;
46875;SDS011;32866;50.160;14.768;2023-01-16T11:58:52;1.90;;;1.17;;
46875;SDS011;32866;50.160;14.768;2023-01-16T12:04:30;5.32;;;1.55;;
46875;SDS011;32866;50.160;14.768;2023-01-16T12:12:09;1.77;;;1.10;;
46875;SDS011;32866;50.160;14.768;2023-01-16T12:28:18;4.55;;;2.15;;
46875;SDS011;32866;50.160;14.768;2023-01-16T12:36:50;4.00;;;1.83;;
46875;SDS011;32866;50.160;14.768;2023-01-16T12:39:28;4.45;;;2.25;;
46875;SDS011;32866;50.160;14.768;2023-01-16T12:45:07;3.13;;;2.00;;
46875;SDS011;32866;50.160;14.768;2023-01-16T12:59:28;4.25;;;1.38;;
46875;SDS011;32866;50.160;14.768;2023-01-16T13:02:59;2.28;;;1.38;;
46875;SDS011;32866;50.160;14.768;2023-01-16T13:05:03;5.38;;;1.70;;
46875;SDS011;32866;50.160;14.768;2023-01-16T13:07:35;3.20;;;2.05;;
46875;SDS011;32866;50.160;14.768;2023-01-16T13:12:53;1.45;;;1.10;;
46875;SDS011;32866;50.160;14.768;2023-01-16T13:15:40;2.83;;;1.20;;
46875;SDS011;32866;50.160;14.768;2023-01-16T13:18:19;1.98;;;1.20;;
46875;SDS011;32866;50.160;14.768;2023-01-16T13:20:50;2.80;;;1.40;;
46875;SDS011;32866;50.160;14.768;2023-01-16T13:23:19;3.90;;;1.40;;
46875;SDS011;32866;50.160;14.768;2023-01-16T13:25:49;3.87;;;1.00;;
46875;SDS011;32866;50.160;14.768;2023-01-16T13:31:11;1.37;;;0.90;;
46875;SDS011;32866;50.160;14.768;2023-01-16T13:33:42;2.87;;;1.20;;
46875;SDS011;32866;50.160;14.768;2023-01-16T13:36:38;1.37;;;0.87;;
46875;SDS011;32866;50.160;14.768;2023-01-16T13:44:39;1.63;;;1.10;;
46875;SDS011;32866;50.160;14.768;2023-01-16T13:47:28;1.63;;;1.20;;
46875;SDS011;32866;50.160;14.768;2023-01-16T13:50:02;3.40;;;1.40;;
46875;SDS011;32866;50.160;14.768;2023-01-16T13:52:44;1.80;;;1.42;;
46875;SDS011;32866;50.160;14.768;2023-01-16T13:55:17;2.90;;;1.55;;
46875;SDS011;32866;50.160;14.768;2023-01-16T13:57:48;2.83;;;1.60;;
46875;SDS011;32866;50.160;14.768;2023-01-16T14:00:16;3.42;;;1.88;;
46875;SDS011;32866;50.160;14.768;2023-01-16T14:02:44;3.27;;;1.60;;
46875;SDS011;32866;50.160;14.768;2023-01-16T14:13:24;3.07;;;1.30;;
46875;SDS011;32866;50.160;14.768;2023-01-16T14:16:00;2.80;;;1.60;;
46875;SDS011;32866;50.160;14.768;2023-01-16T14:21:41;6.33;;;1.40;;
46875;SDS011;32866;50.160;14.768;2023-01-16T14:24:26;2.77;;;1.60;;
46875;SDS011;32866;50.160;14.768;2023-01-16T14:26:58;2.70;;;1.40;;
46875;SDS011;32866;50.160;14.768;2023-01-16T14:29:43;1.23;;;1.10;;
46875;SDS011;32866;50.160;14.768;2023-01-16T14:34:49;2.35;;;1.35;;
46875;SDS011;32866;50.160;14.768;2023-01-16T14:37:19;3.57;;;1.77;;
46875;SDS011;32866;50.160;14.768;2023-01-16T14:39:51;4.03;;;1.50;;
46875;SDS011;32866;50.160;14.768;2023-01-16T14:47:59;1.77;;;1.20;;
46875;SDS011;32866;50.160;14.768;2023-01-16T14:57:21;5.47;;;1.70;;
46875;SDS011;32866;50.160;14.768;2023-01-16T15:00:02;2.83;;;1.50;;
46875;SDS011;32866;50.160;14.768;2023-01-16T15:05:32;4.27;;;1.97;;
46875;SDS011;32866;50.160;14.768;2023-01-16T15:08:19;3.07;;;1.47;;
46875;SDS011;32866;50.160;14.768;2023-01-16T15:10:49;2.60;;;1.90;;
46875;SDS011;32866;50.160;14.768;2023-01-16T15:13:26;3.20;;;1.50;;
46875;SDS011;32866;50.160;14.768;2023-01-16T15:16:19;5.40;;;2.03;;
46875;SDS011;32866;50.160;14.768;2023-01-16T15:19:17;2.00;;;1.33;;
46875;SDS011;32866;50.160;14.768;2023-01-16T15:22:04;3.97;;;1.60;;
46875;SDS011;32866;50.160;14.768;2023-01-16T15:24:41;3.37;;;1.80;;
46875;SDS011;32866;50.160;14.768;2023-01-16T15:27:15;4.07;;;2.53;;
46875;SDS011;32866;50.160;14.768;2023-01-16T15:32:29;4.43;;;1.83;;
46875;SDS011;32866;50.160;14.768;2023-01-16T15:35:13;4.78;;;1.88;;
46875;SDS011;32866;50.160;14.768;2023-01-16T15:37:47;2.80;;;1.77;;
46875;SDS011;32866;50.160;14.768;2023-01-16T15:40:35;3.28;;;1.67;;
46875;SDS011;32866;50.160;14.768;2023-01-16T15:43:01;3.13;;;1.77;;
46875;SDS011;32866;50.160;14.768;2023-01-16T15:45:51;1.90;;;1.70;;
46875;SDS011;32866;50.160;14.768;2023-01-16T15:48:55;3.47;;;2.05;;
46875;SDS011;32866;50.160;14.768;2023-01-16T15:51:50;2.30;;;1.73;;
46875;SDS011;32866;50.160;14.768;2023-01-16T15:54:17;5.37;;;1.93;;
46875;SDS011;32866;50.160;14.768;2023-01-16T15:56:43;2.25;;;1.60;;
46875;SDS011;32866;50.160;14.768;2023-01-16T15:59:26;10.50;;;2.00;;
46875;SDS011;32866;50.160;14.768;2023-01-16T16:04:55;2.93;;;1.60;;
46875;SDS011;32866;50.160;14.768;2023-01-16T16:07:24;5.77;;;1.80;;
46875;SDS011;32866;50.160;14.768;2023-01-16T16:12:18;4.40;;;1.73;;
46875;SDS011;32866;50.160;14.768;2023-01-16T16:14:45;2.00;;;1.60;;
46875;SDS011;32866;50.160;14.768;2023-01-16T16:17:30;5.63;;;1.70;;
46875;SDS011;32866;50.160;14.768;2023-01-16T16:20:37;2.70;;;1.60;;
46875;SDS011;32866;50.160;14.768;2023-01-16T16:23:15;1.67;;;1.50;;
46875;SDS011;32866;50.160;14.768;2023-01-16T16:25:58;2.30;;;1.50;;
46875;SDS011;32866;50.160;14.768;2023-01-16T16:33:38;2.43;;;2.23;;
46875;SDS011;32866;50.160;14.768;2023-01-16T16:36:06;2.80;;;1.30;;
46875;SDS011;32866;50.160;14.768;2023-01-16T16:48:48;3.30;;;2.10;;
46875;SDS011;32866;50.160;14.768;2023-01-16T16:53:47;3.73;;;2.10;;
46875;SDS011;32866;50.160;14.768;2023-01-16T16:56:21;3.87;;;2.27;;
46875;SDS011;32866;50.160;14.768;2023-01-16T16:58:50;2.07;;;1.77;;
46875;SDS011;32866;50.160;14.768;2023-01-16T17:01:17;2.05;;;1.70;;
46875;SDS011;32866;50.160;14.768;2023-01-16T17:03:46;1.50;;;1.40;;
46875;SDS011;32866;50.160;14.768;2023-01-16T17:06:18;1.63;;;1.47;;
46875;SDS011;32866;50.160;14.768;2023-01-16T17:08:46;2.07;;;1.80;;
46875;SDS011;32866;50.160;14.768;2023-01-16T17:11:12;2.50;;;1.98;;
46875;SDS011;32866;50.160;14.768;2023-01-16T17:13:39;2.87;;;2.33;;
46875;SDS011;32866;50.160;14.768;2023-01-16T17:18:35;4.00;;;2.37;;
46875;SDS011;32866;50.160;14.768;2023-01-16T17:21:01;5.07;;;2.88;;
46875;SDS011;32866;50.160;14.768;2023-01-16T17:23:26;4.50;;;2.50;;
46875;SDS011;32866;50.160;14.768;2023-01-16T17:25:52;3.92;;;2.65;;
46875;SDS011;32866;50.160;14.768;2023-01-16T17:28:17;5.05;;;2.72;;
46875;SDS011;32866;50.160;14.768;2023-01-16T17:30:42;3.53;;;2.30;;
46875;SDS011;32866;50.160;14.768;2023-01-16T17:35:38;4.13;;;2.60;;
46875;SDS011;32866;50.160;14.768;2023-01-16T17:38:07;3.37;;;2.13;;
46875;SDS011;32866;50.160;14.768;2023-01-16T17:40:37;3.87;;;2.37;;
46875;SDS011;32866;50.160;14.768;2023-01-16T17:48:13;4.43;;;2.47;;
46875;SDS011;32866;50.160;14.768;2023-01-16T17:50:39;4.55;;;2.80;;
46875;SDS011;32866;50.160;14.768;2023-01-16T17:55:33;4.97;;;2.70;;
46875;SDS011;32866;50.160;14.768;2023-01-16T17:58:21;5.80;;;3.13;;
46875;SDS011;32866;50.160;14.768;2023-01-16T18:00:52;4.60;;;2.83;;
46875;SDS011;32866;50.160;14.768;2023-01-16T18:03:21;4.53;;;2.80;;
46875;SDS011;32866;50.160;14.768;2023-01-16T18:05:47;2.22;;;1.95;;
46875;SDS011;32866;50.160;14.768;2023-01-16T18:08:12;5.10;;;2.53;;
46875;SDS011;32866;50.160;14.768;2023-01-16T18:10:38;6.20;;;3.05;;
46875;SDS011;32866;50.160;14.768;2023-01-16T18:13:04;3.88;;;2.65;;
46875;SDS011;32866;50.160;14.768;2023-01-16T18:15:48;5.47;;;2.77;;
46875;SDS011;32866;50.160;14.768;2023-01-16T18:18:32;4.67;;;2.47;;
46875;SDS011;32866;50.160;14.768;2023-01-16T18:20:57;5.18;;;2.90;;
46875;SDS011;32866;50.160;14.768;2023-01-16T18:23:42;7.50;;;2.80;;
46875;SDS011;32866;50.160;14.768;2023-01-16T18:26:07;4.10;;;2.58;;
46875;SDS011;32866;50.160;14.768;2023-01-16T18:28:32;4.28;;;2.90;;
46875;SDS011;32866;50.160;14.768;2023-01-16T18:31:02;4.65;;;2.60;;